KSWO

Stillwater Regional Airport

Stillwater, Oklahoma, USA
METAR KSWO 191453Z 18010KT 10SM CLR 01/M07 A3003 RMK AO2 SLP175 T00061072 58007
Observed Flight Rules
Jan-19 @ 14:53 UTC (40 minutes ago) Visual Flight Rules
Wind Visibility Clouds
180° at 10 knots 10 miles
  • Clear skies
Temperatures Readings
Current 1°C / 34°F
Dewpoint -7°C / 19°F
Humidity 56%
Altimeter 30.03" Hg
Pressure 1017.5 hPa
Elevation 290
METAR KSWO 191453Z 18010KT 10SM CLR 01/M07 A3003 RMK AO2 SLP175 T00061072 58007
Observed Flight Rules
Jan-19 @ 14:53 UTC
(40 minutes ago)
VFR
Wind Visibility
180° at 10 knots 10 miles
Clouds
  • Clear skies
Temperature Dewpoint
1°C / 34°F -7°C / 19°F
Humidity Altimeter Pressure
56% 30.03" Hg 1017.5 hPa